Check out our new PWSWeather beta!
PWSweather.com
Personal Weather Stations
Station Observations
KJ4AJP
Beautiful Downtown Gardner, Martin, TN 38237

Beautiful Downtown GardnerMartin, TN 38237

Lat: 36.358, Lon: -88.8994

Elevation: 384.3

Station Type: TP1080WC

http://weather.mambm.com/

High Low Average
Temperature 42.3°F5.7°C 21.7°F-5.7°C 36.0°F2.2°C
Dew Point 40.6°F4.8°C 15.4°F-9.2°C 31.7°F-0.2°C
Winds 9.8 mph 15.8 kmh Calm Calm 3.0 mph W4.8 kmh W
Wind Gusts 15.9 mph25.6 kmh 3.1 mph5.0 kmh 9.0 mph14.5 kmh
Humidity 99% 62% 85%
Pressure 30.42 in1030.1 mb 29.74 in1007.1 mb -
Precipitation 0.01 in0.3 mm - -
Hour Temp Dew Point Humidity Winds Wind Gusts Pressure Precip Precip Rate Daily Precip Total
12:00 AM 40.8°F4.9°C 40.6°F4.8°C 99% 0.7 mph WNW1.1 kmh WNW 3.8 mph6.1 kmh 29.74 in1007.1 mb 0.00 in0.0 mm 0.00 in0.0 mm 0.00 in0.0 mm
12:15 AM 40.6°F4.8°C 40.4°F4.7°C 99% 0.7 mph WSW1.1 kmh WSW 6.0 mph9.7 kmh 29.78 in1008.5 mb 0.00 in0.0 mm 0.00 in0.0 mm 0.00 in0.0 mm
12:30 AM 40.6°F4.8°C 40.4°F4.7°C 99% 2.2 mph W3.5 kmh W 7.6 mph12.2 kmh 29.78 in1008.5 mb 0.00 in0.0 mm 0.00 in0.0 mm 0.00 in0.0 mm
12:45 AM 40.6°F4.8°C 40.4°F4.7°C 99% 2.2 mph NW3.5 kmh NW 6.0 mph9.7 kmh 29.77 in1008.1 mb 0.00 in0.0 mm 0.00 in0.0 mm 0.00 in0.0 mm
01:00 AM 40.5°F4.7°C 40.2°F4.6°C 99% 3.8 mph NW6.1 kmh NW 6.0 mph9.7 kmh 29.79 in1008.8 mb 0.00 in0.0 mm 0.00 in0.0 mm 0.00 in0.0 mm
01:15 AM 40.5°F4.7°C 40.2°F4.6°C 99% 1.6 mph W2.6 kmh W 6.0 mph9.7 kmh 29.79 in1008.8 mb 0.00 in0.0 mm 0.00 in0.0 mm 0.00 in0.0 mm
01:30 AM 40.5°F4.7°C 40.2°F4.6°C 99% 1.6 mph NW2.6 kmh NW 3.8 mph6.1 kmh 29.77 in1008.1 mb 0.00 in0.0 mm 0.00 in0.0 mm 0.00 in0.0 mm
01:45 AM 40.3°F4.6°C 40.0°F4.4°C 99% 0.7 mph NW1.1 kmh NW 3.1 mph5.0 kmh 29.78 in1008.5 mb 0.00 in0.0 mm 0.00 in0.0 mm 0.00 in0.0 mm
02:00 AM 40.1°F4.5°C 39.8°F4.3°C 99% 1.6 mph WNW2.6 kmh WNW 6.9 mph11.1 kmh 29.79 in1008.8 mb 0.00 in0.0 mm 0.00 in0.0 mm 0.00 in0.0 mm
02:15 AM 39.9°F4.4°C 39.7°F4.3°C 99% Calm Calm 5.4 mph8.7 kmh 29.80 in1009.1 mb 0.00 in0.0 mm 0.00 in0.0 mm 0.00 in0.0 mm
02:30 AM 39.9°F4.4°C 39.7°F4.3°C 99% 1.6 mph NW2.6 kmh NW 4.5 mph7.2 kmh 29.80 in1009.1 mb 0.00 in0.0 mm 0.00 in0.0 mm 0.00 in0.0 mm
02:45 AM 39.9°F4.4°C 39.7°F4.3°C 99% 0.7 mph W1.1 kmh W 8.3 mph13.4 kmh 29.80 in1009.1 mb 0.00 in0.0 mm 0.00 in0.0 mm 0.00 in0.0 mm
03:00 AM 39.9°F4.4°C 39.7°F4.3°C 99% 3.8 mph W6.1 kmh W 9.8 mph15.8 kmh 29.82 in1009.8 mb 0.00 in0.0 mm 0.00 in0.0 mm 0.00 in0.0 mm
03:15 AM 39.7°F4.3°C 39.5°F4.2°C 99% 1.6 mph WNW2.6 kmh WNW 9.8 mph15.8 kmh 29.82 in1009.8 mb 0.00 in0.0 mm 0.00 in0.0 mm 0.00 in0.0 mm
03:30 AM 39.7°F4.3°C 39.5°F4.2°C 99% 2.2 mph NW3.5 kmh NW 3.8 mph6.1 kmh 29.83 in1010.2 mb 0.00 in0.0 mm 0.00 in0.0 mm 0.00 in0.0 mm
03:45 AM 39.6°F4.2°C 39.3°F4.1°C 99% 1.6 mph NW2.6 kmh NW 5.4 mph8.7 kmh 29.85 in1010.8 mb 0.00 in0.0 mm 0.00 in0.0 mm 0.00 in0.0 mm
04:00 AM 39.7°F4.3°C 39.5°F4.2°C 99% 0.7 mph NW1.1 kmh NW 4.5 mph7.2 kmh 29.85 in1010.8 mb 0.01 in0.3 mm 0.01 in0.3 mm 0.01 in0.3 mm
04:15 AM 39.4°F4.1°C 39.1°F3.9°C 99% 1.6 mph NNW2.6 kmh NNW 4.5 mph7.2 kmh 29.85 in1010.8 mb 0.01 in0.3 mm 0.00 in0.0 mm 0.01 in0.3 mm
04:30 AM 39.2°F4.0°C 38.9°F3.8°C 99% 1.6 mph NW2.6 kmh NW 6.0 mph9.7 kmh 29.87 in1011.5 mb 0.01 in0.3 mm 0.00 in0.0 mm 0.01 in0.3 mm
04:45 AM 39.0°F3.9°C 38.8°F3.8°C 99% 0.7 mph NNW1.1 kmh NNW 6.0 mph9.7 kmh 29.87 in1011.5 mb 0.01 in0.3 mm 0.00 in0.0 mm 0.01 in0.3 mm
05:00 AM 38.8°F3.8°C 38.6°F3.7°C 99% 1.6 mph NW2.6 kmh NW 6.0 mph9.7 kmh 29.88 in1011.9 mb 0.00 in0.0 mm 0.00 in0.0 mm 0.01 in0.3 mm
05:15 AM 38.7°F3.7°C 38.4°F3.6°C 99% 1.6 mph NW2.6 kmh NW 4.5 mph7.2 kmh 29.88 in1011.9 mb 0.00 in0.0 mm 0.00 in0.0 mm 0.01 in0.3 mm
05:30 AM 38.5°F3.6°C 38.2°F3.4°C 99% 1.6 mph NW2.6 kmh NW 5.4 mph8.7 kmh 29.90 in1012.5 mb 0.00 in0.0 mm 0.00 in0.0 mm 0.01 in0.3 mm
05:45 AM 38.5°F3.6°C 38.2°F3.4°C 99% 1.6 mph NW2.6 kmh NW 9.2 mph14.8 kmh 29.91 in1012.9 mb 0.00 in0.0 mm 0.00 in0.0 mm 0.01 in0.3 mm
06:00 AM 38.3°F3.5°C 38.0°F3.3°C 99% 1.6 mph NW2.6 kmh NW 9.8 mph15.8 kmh 29.92 in1013.2 mb 0.00 in0.0 mm 0.00 in0.0 mm 0.01 in0.3 mm
06:15 AM 37.9°F3.3°C 37.7°F3.2°C 99% 3.8 mph NW6.1 kmh NW 12.1 mph19.5 kmh 29.93 in1013.5 mb 0.00 in0.0 mm 0.00 in0.0 mm 0.01 in0.3 mm
06:30 AM 37.8°F3.2°C 37.5°F3.1°C 99% 1.6 mph NW2.6 kmh NW 9.8 mph15.8 kmh 29.94 in1013.9 mb 0.00 in0.0 mm 0.00 in0.0 mm 0.01 in0.3 mm
06:45 AM 37.8°F3.2°C 37.2°F2.9°C 98% 2.2 mph NW3.5 kmh NW 6.0 mph9.7 kmh 29.95 in1014.2 mb 0.00 in0.0 mm 0.00 in0.0 mm 0.01 in0.3 mm
07:00 AM 37.6°F3.1°C 37.1°F2.8°C 98% 1.6 mph NW2.6 kmh NW 4.5 mph7.2 kmh 29.98 in1015.2 mb 0.00 in0.0 mm 0.00 in0.0 mm 0.01 in0.3 mm
07:15 AM 37.4°F3.0°C 36.9°F2.7°C 98% 0.7 mph NW1.1 kmh NW 5.4 mph8.7 kmh 29.98 in1015.2 mb 0.00 in0.0 mm 0.00 in0.0 mm 0.01 in0.3 mm
07:30 AM 37.4°F3.0°C 36.9°F2.7°C 98% 3.1 mph NNW5.0 kmh NNW 7.6 mph12.2 kmh 30.00 in1015.9 mb 0.00 in0.0 mm 0.00 in0.0 mm 0.01 in0.3 mm
07:45 AM 37.4°F3.0°C 36.6°F2.6°C 97% 2.2 mph NW3.5 kmh NW 6.9 mph11.1 kmh 30.01 in1016.3 mb 0.00 in0.0 mm 0.00 in0.0 mm 0.01 in0.3 mm
08:00 AM 37.4°F3.0°C 36.6°F2.6°C 97% 2.2 mph N3.5 kmh N 11.4 mph18.3 kmh 30.03 in1016.9 mb 0.00 in0.0 mm 0.00 in0.0 mm 0.01 in0.3 mm
08:15 AM 37.4°F3.0°C 36.4°F2.4°C 96% 3.1 mph NW5.0 kmh NW 11.4 mph18.3 kmh 30.03 in1016.9 mb 0.00 in0.0 mm 0.00 in0.0 mm 0.01 in0.3 mm
08:30 AM 37.6°F3.1°C 36.3°F2.4°C 95% 3.1 mph N5.0 kmh N 6.0 mph9.7 kmh 30.04 in1017.3 mb 0.00 in0.0 mm 0.00 in0.0 mm 0.01 in0.3 mm
08:45 AM 38.1°F3.4°C 36.6°F2.6°C 94% 3.1 mph NNW5.0 kmh NNW 13.6 mph21.9 kmh 30.05 in1017.6 mb 0.00 in0.0 mm 0.00 in0.0 mm 0.01 in0.3 mm
09:00 AM 38.8°F3.8°C 37.0°F2.8°C 93% 3.1 mph NNW5.0 kmh NNW 9.2 mph14.8 kmh 30.06 in1017.9 mb 0.00 in0.0 mm 0.00 in0.0 mm 0.01 in0.3 mm
09:15 AM 38.8°F3.8°C 36.7°F2.6°C 92% 1.6 mph NNW2.6 kmh NNW 6.0 mph9.7 kmh 30.06 in1017.9 mb 0.00 in0.0 mm 0.00 in0.0 mm 0.01 in0.3 mm
09:30 AM 39.2°F4.0°C 37.1°F2.8°C 92% 1.6 mph NNW2.6 kmh NNW 9.8 mph15.8 kmh 30.08 in1018.6 mb 0.00 in0.0 mm 0.00 in0.0 mm 0.01 in0.3 mm
09:45 AM 39.4°F4.1°C 37.0°F2.8°C 91% 2.2 mph NW3.5 kmh NW 6.0 mph9.7 kmh 30.09 in1019.0 mb 0.00 in0.0 mm 0.00 in0.0 mm 0.01 in0.3 mm
10:00 AM 39.9°F4.4°C 37.5°F3.1°C 91% 0.7 mph NW1.1 kmh NW 6.0 mph9.7 kmh 30.09 in1019.0 mb 0.00 in0.0 mm 0.00 in0.0 mm 0.01 in0.3 mm
10:15 AM 40.8°F4.9°C 38.1°F3.4°C 90% 3.1 mph NNW5.0 kmh NNW 8.3 mph13.4 kmh 30.10 in1019.3 mb 0.00 in0.0 mm 0.00 in0.0 mm 0.01 in0.3 mm
10:30 AM 41.7°F5.4°C 38.4°F3.6°C 88% 2.2 mph NNW3.5 kmh NNW 6.0 mph9.7 kmh 30.10 in1019.3 mb 0.00 in0.0 mm 0.00 in0.0 mm 0.01 in0.3 mm
10:45 AM 41.5°F5.3°C 37.7°F3.2°C 86% 3.1 mph NNW5.0 kmh NNW 6.0 mph9.7 kmh 30.11 in1019.6 mb 0.00 in0.0 mm 0.00 in0.0 mm 0.01 in0.3 mm
11:00 AM 41.2°F5.1°C 36.7°F2.6°C 84% 1.6 mph NNW2.6 kmh NNW 8.3 mph13.4 kmh 30.13 in1020.3 mb 0.00 in0.0 mm 0.00 in0.0 mm 0.01 in0.3 mm
11:15 AM 41.0°F5.0°C 36.5°F2.5°C 84% 1.6 mph NW2.6 kmh NW 11.4 mph18.3 kmh 30.14 in1020.7 mb 0.00 in0.0 mm 0.00 in0.0 mm 0.01 in0.3 mm
11:30 AM 41.2°F5.1°C 36.4°F2.4°C 83% 2.2 mph NNW3.5 kmh NNW 8.3 mph13.4 kmh 30.15 in1021.0 mb 0.00 in0.0 mm 0.00 in0.0 mm 0.01 in0.3 mm
11:45 AM 41.5°F5.3°C 36.2°F2.3°C 81% 1.6 mph NW2.6 kmh NW 5.4 mph8.7 kmh 30.15 in1021.0 mb 0.00 in0.0 mm 0.00 in0.0 mm 0.01 in0.3 mm
12:00 PM 41.5°F5.3°C 35.8°F2.1°C 80% 1.6 mph NW2.6 kmh NW 6.9 mph11.1 kmh 30.15 in1021.0 mb 0.00 in0.0 mm 0.00 in0.0 mm 0.01 in0.3 mm
12:15 PM 42.1°F5.6°C 36.4°F2.4°C 80% 1.6 mph NNW2.6 kmh NNW 6.9 mph11.1 kmh 30.15 in1021.0 mb 0.00 in0.0 mm 0.00 in0.0 mm 0.01 in0.3 mm
12:30 PM 42.3°F5.7°C 36.2°F2.3°C 79% 1.6 mph NNW2.6 kmh NNW 7.6 mph12.2 kmh 30.15 in1021.0 mb 0.00 in0.0 mm 0.00 in0.0 mm 0.01 in0.3 mm
12:45 PM 41.9°F5.5°C 35.9°F2.2°C 79% 4.5 mph NNW7.2 kmh NNW 8.3 mph13.4 kmh 30.15 in1021.0 mb 0.00 in0.0 mm 0.00 in0.0 mm 0.01 in0.3 mm
01:00 PM 41.2°F5.1°C 35.8°F2.1°C 81% 1.6 mph NW2.6 kmh NW 12.1 mph19.5 kmh 30.15 in1021.0 mb 0.00 in0.0 mm 0.00 in0.0 mm 0.01 in0.3 mm
01:15 PM 41.0°F5.0°C 35.3°F1.8°C 80% 4.5 mph N7.2 kmh N 10.7 mph17.2 kmh 30.16 in1021.3 mb 0.00 in0.0 mm 0.00 in0.0 mm 0.01 in0.3 mm
01:30 PM 40.8°F4.9°C 35.1°F1.7°C 80% 3.1 mph NW5.0 kmh NW 8.3 mph13.4 kmh 30.16 in1021.3 mb 0.00 in0.0 mm 0.00 in0.0 mm 0.01 in0.3 mm
01:45 PM 40.8°F4.9°C 34.8°F1.6°C 79% 2.2 mph NW3.5 kmh NW 8.3 mph13.4 kmh 30.17 in1021.7 mb 0.00 in0.0 mm 0.00 in0.0 mm 0.01 in0.3 mm
02:00 PM 40.5°F4.7°C 34.2°F1.2°C 78% 2.2 mph NNW3.5 kmh NNW 13.0 mph20.9 kmh 30.17 in1021.7 mb 0.00 in0.0 mm 0.00 in0.0 mm 0.01 in0.3 mm
02:15 PM 39.7°F4.3°C 33.1°F0.6°C 77% 3.8 mph N6.1 kmh N 11.4 mph18.3 kmh 30.18 in1022.0 mb 0.00 in0.0 mm 0.00 in0.0 mm 0.01 in0.3 mm
02:30 PM 39.6°F4.2°C 33.0°F0.6°C 77% 1.6 mph NNW2.6 kmh NNW 9.8 mph15.8 kmh 30.18 in1022.0 mb 0.00 in0.0 mm 0.00 in0.0 mm 0.01 in0.3 mm
02:45 PM 39.9°F4.4°C 33.0°F0.6°C 76% 3.8 mph NW6.1 kmh NW 7.6 mph12.2 kmh 30.19 in1022.4 mb 0.00 in0.0 mm 0.00 in0.0 mm 0.01 in0.3 mm
03:00 PM 38.8°F3.8°C 31.6°F-0.2°C 75% 2.2 mph NNW3.5 kmh NNW 9.2 mph14.8 kmh 30.20 in1022.7 mb 0.00 in0.0 mm 0.00 in0.0 mm 0.01 in0.3 mm
03:15 PM 40.8°F4.9°C 33.5°F0.8°C 75% 3.8 mph NW6.1 kmh NW 12.1 mph19.5 kmh 30.21 in1023.0 mb 0.00 in0.0 mm 0.00 in0.0 mm 0.01 in0.3 mm
03:30 PM 39.4°F4.1°C 31.5°F-0.3°C 73% 3.8 mph NW6.1 kmh NW 8.3 mph13.4 kmh 30.21 in1023.0 mb 0.00 in0.0 mm 0.00 in0.0 mm 0.01 in0.3 mm
03:45 PM 38.5°F3.6°C 30.9°F-0.6°C 74% 4.5 mph NNW7.2 kmh NNW 9.2 mph14.8 kmh 30.23 in1023.7 mb 0.00 in0.0 mm 0.00 in0.0 mm 0.01 in0.3 mm
04:00 PM 38.5°F3.6°C 30.6°F-0.8°C 73% 3.8 mph NNW6.1 kmh NNW 9.2 mph14.8 kmh 30.24 in1024.0 mb 0.00 in0.0 mm 0.00 in0.0 mm 0.01 in0.3 mm
04:15 PM 38.1°F3.4°C 29.9°F-1.2°C 72% 3.1 mph NNW5.0 kmh NNW 5.4 mph8.7 kmh 30.25 in1024.4 mb 0.00 in0.0 mm 0.00 in0.0 mm 0.01 in0.3 mm
04:30 PM 35.8°F2.1°C 26.3°F-3.2°C 68% 4.5 mph NNW7.2 kmh NNW 13.6 mph21.9 kmh 30.25 in1024.4 mb 0.00 in0.0 mm 0.00 in0.0 mm 0.01 in0.3 mm
04:45 PM 35.1°F1.7°C 25.9°F-3.4°C 69% 2.2 mph NNW3.5 kmh NNW 10.7 mph17.2 kmh 30.27 in1025.1 mb 0.00 in0.0 mm 0.00 in0.0 mm 0.01 in0.3 mm
05:00 PM 34.3°F1.3°C 24.5°F-4.2°C 67% 5.4 mph N8.7 kmh N 13.0 mph20.9 kmh 30.27 in1025.1 mb 0.00 in0.0 mm 0.00 in0.0 mm 0.01 in0.3 mm
05:15 PM 33.3°F0.7°C 22.4°F-5.3°C 64% 4.5 mph N7.2 kmh N 12.1 mph19.5 kmh 30.28 in1025.4 mb 0.00 in0.0 mm 0.00 in0.0 mm 0.01 in0.3 mm
05:30 PM 32.4°F0.2°C 20.8°F-6.2°C 62% 1.6 mph N2.6 kmh N 15.2 mph24.5 kmh 30.29 in1025.7 mb 0.00 in0.0 mm 0.00 in0.0 mm 0.01 in0.3 mm
05:45 PM 31.6°F-0.2°C 21.6°F-5.8°C 66% 3.8 mph NNW6.1 kmh NNW 7.6 mph12.2 kmh 30.29 in1025.7 mb 0.00 in0.0 mm 0.00 in0.0 mm 0.01 in0.3 mm
06:00 PM 30.9°F-0.6°C 21.3°F-5.9°C 67% 2.2 mph NNW3.5 kmh NNW 5.4 mph8.7 kmh 30.29 in1025.7 mb 0.00 in0.0 mm 0.00 in0.0 mm 0.01 in0.3 mm
06:15 PM 30.2°F-1.0°C 19.9°F-6.7°C 65% 1.6 mph NNW2.6 kmh NNW 5.4 mph8.7 kmh 30.30 in1026.1 mb 0.00 in0.0 mm 0.00 in0.0 mm 0.01 in0.3 mm
06:30 PM 29.7°F-1.3°C 19.7°F-6.8°C 66% 0.7 mph NNW1.1 kmh NNW 3.8 mph6.1 kmh 30.31 in1026.4 mb 0.00 in0.0 mm 0.00 in0.0 mm 0.01 in0.3 mm
06:45 PM 29.1°F-1.6°C 19.6°F-6.9°C 67% 1.6 mph NNW2.6 kmh NNW 6.0 mph9.7 kmh 30.32 in1026.8 mb 0.00 in0.0 mm 0.00 in0.0 mm 0.01 in0.3 mm
07:00 PM 28.8°F-1.8°C 19.9°F-6.7°C 69% 1.6 mph NNW2.6 kmh NNW 6.0 mph9.7 kmh 30.32 in1026.8 mb 0.00 in0.0 mm 0.00 in0.0 mm 0.01 in0.3 mm
07:15 PM 28.6°F-1.9°C 20.4°F-6.4°C 71% 2.2 mph N3.5 kmh N 6.0 mph9.7 kmh 30.32 in1026.8 mb 0.00 in0.0 mm 0.00 in0.0 mm 0.01 in0.3 mm
07:30 PM 28.4°F-2.0°C 20.9°F-6.2°C 73% 2.2 mph N3.5 kmh N 7.6 mph12.2 kmh 30.33 in1027.1 mb 0.00 in0.0 mm 0.00 in0.0 mm 0.01 in0.3 mm
07:45 PM 28.4°F-2.0°C 21.2°F-6.0°C 74% 5.4 mph N8.7 kmh N 10.7 mph17.2 kmh 30.33 in1027.1 mb 0.00 in0.0 mm 0.00 in0.0 mm 0.01 in0.3 mm
08:00 PM 28.2°F-2.1°C 21.0°F-6.1°C 74% 7.6 mph N12.2 kmh N 12.1 mph19.5 kmh 30.34 in1027.4 mb 0.00 in0.0 mm 0.00 in0.0 mm 0.01 in0.3 mm
08:15 PM 28.0°F-2.2°C 20.9°F-6.2°C 74% 3.8 mph N6.1 kmh N 11.4 mph18.3 kmh 30.35 in1027.8 mb 0.00 in0.0 mm 0.00 in0.0 mm 0.01 in0.3 mm
08:30 PM 27.7°F-2.4°C 20.8°F-6.2°C 75% 2.2 mph NE3.5 kmh NE 9.2 mph14.8 kmh 30.36 in1028.1 mb 0.00 in0.0 mm 0.00 in0.0 mm 0.01 in0.3 mm
08:45 PM 27.1°F-2.7°C 20.0°F-6.7°C 74% 5.4 mph N8.7 kmh N 12.1 mph19.5 kmh 30.35 in1027.8 mb 0.00 in0.0 mm 0.00 in0.0 mm 0.01 in0.3 mm
09:00 PM 26.6°F-3.0°C 19.5°F-6.9°C 74% 6.0 mph NNE9.7 kmh NNE 9.2 mph14.8 kmh 30.36 in1028.1 mb 0.00 in0.0 mm 0.00 in0.0 mm 0.01 in0.3 mm
09:15 PM 26.2°F-3.2°C 18.8°F-7.3°C 73% 4.5 mph N7.2 kmh N 9.2 mph14.8 kmh 30.37 in1028.4 mb 0.00 in0.0 mm 0.00 in0.0 mm 0.01 in0.3 mm
09:30 PM 25.9°F-3.4°C 18.8°F-7.3°C 74% 4.5 mph N7.2 kmh N 8.3 mph13.4 kmh 30.38 in1028.8 mb 0.00 in0.0 mm 0.00 in0.0 mm 0.01 in0.3 mm
09:45 PM 25.3°F-3.7°C 17.9°F-7.8°C 73% 3.1 mph N5.0 kmh N 12.1 mph19.5 kmh 30.38 in1028.8 mb 0.00 in0.0 mm 0.00 in0.0 mm 0.01 in0.3 mm
10:00 PM 25.3°F-3.7°C 18.3°F-7.6°C 74% 3.8 mph N6.1 kmh N 13.0 mph20.9 kmh 30.39 in1029.1 mb 0.00 in0.0 mm 0.00 in0.0 mm 0.01 in0.3 mm
10:15 PM 24.6°F-4.1°C 17.2°F-8.2°C 73% 5.4 mph N8.7 kmh N 13.6 mph21.9 kmh 30.39 in1029.1 mb 0.00 in0.0 mm 0.00 in0.0 mm 0.01 in0.3 mm
10:30 PM 24.3°F-4.3°C 17.5°F-8.1°C 75% 5.4 mph N8.7 kmh N 13.6 mph21.9 kmh 30.39 in1029.1 mb 0.00 in0.0 mm 0.00 in0.0 mm 0.01 in0.3 mm
10:45 PM 23.9°F-4.5°C 17.5°F-8.1°C 76% 6.0 mph N9.7 kmh N 15.9 mph25.6 kmh 30.39 in1029.1 mb 0.00 in0.0 mm 0.00 in0.0 mm 0.01 in0.3 mm
11:00 PM 23.4°F-4.8°C 17.0°F-8.3°C 76% 3.8 mph N6.1 kmh N 13.6 mph21.9 kmh 30.41 in1029.8 mb 0.00 in0.0 mm 0.00 in0.0 mm 0.01 in0.3 mm
11:15 PM 22.8°F-5.1°C 16.4°F-8.7°C 76% 5.4 mph N8.7 kmh N 12.1 mph19.5 kmh 30.41 in1029.8 mb 0.00 in0.0 mm 0.00 in0.0 mm 0.01 in0.3 mm
11:30 PM 22.3°F-5.4°C 15.9°F-8.9°C 76% 6.0 mph N9.7 kmh N 13.0 mph20.9 kmh 30.41 in1029.8 mb 0.00 in0.0 mm 0.00 in0.0 mm 0.01 in0.3 mm
11:45 PM 21.7°F-5.7°C 15.4°F-9.2°C 76% 9.8 mph N15.8 kmh N 14.5 mph23.3 kmh 30.42 in1030.1 mb 0.00 in0.0 mm 0.00 in0.0 mm 0.01 in0.3 mm